Timeline UpdatesTrip UpdatesNews PostsPvt PostsTravel TipsAdmin PostsConv PostsFollowed PostsChat RequestsBlog PostsPNR Posts

Disclaimer
Search
 
 
Thu Aug 21, 2014 17:38:06 ISTHomeTrainsΣChainsAtlasPNRForumGalleryNewsFAQTripsMembersLoginFeedback
No Recent News for this Train
Other Trains in the News **new
Latest...
⇐ Return Journey: Train# 54378

54377/Prayag-Bareilly Passenger (UnReserved)

Jan 07 2014 (7:32PM)
Change Departure Station:
Change Arrival Station:
Post a Train Travel TipPost a Train Travel Tip **new
Post a Comment/Question/Picture/VideoPost a Comment/Question/Picture/Video
Pantry/Catering
???
RSA - Rake Sharing
Rake/Coach Composition
Loco
News    PNR    Forum    Time-Table    Availability    Fare Chart    Map    Arr/Dep History    Trips    Gallery    ΣChains    X/O    Timeline    
Travel Time: 4h 48m    21 halts    Distance: 150 km    Avg Speed: 31 km/hr
Type: Passenger
Zone: NR/Northern
Departs @ 10:22 (Avg 1h 15m late)
Platform# ???
SMTWTFS
Masit/MST 
Arrives @ 15:10 (Avg 36m late)
Platform# 3
SMTWTFS
Bareilly Junction/BE 

21 halts. 24 intermediate Stations between Masit and Bareilly Junction

Show ALL intermediate Stations  Show Old Time-Table

#CodeStation NameX/OArrivesAvgDepartsAvgHaltPFDay#KmSpeedElevZoneAddress
1PRGPrayag Junction (3)  -01:55+3--1-278.83296mNRAllahabad, Uttar Pradesh
2PFMPhaphamau Junction (3)  02:07+602:08+181m--1-272.56799mNRAllahabad, Uttar Pradesh
3SPGLSarai Gopal  02:15-02:16-1m--1-264.741101mNRAllahabad Bypass, Uttar Pradesh
4ARPAtrampur  02:25+1702:26+171m--1-258.553105mNRAtrampur Railway Station, Uttar Pradesh
5RMCRam Chaura Road  02:34+1602:35+161m--1-251.552103mNRAnapur - Mansurabad Road, Uttar Pradesh
6LGOLalgopalGanj  02:43+1502:44+151m--1-244.655104mNRLal Gopalganj, Uttar Pradesh
7BHDRBhadri  02:52+1402:53+151m--1-237.248106mNRNational Highway 24B, Uttar Pradesh
8KHNMKunda Harnamganj (2)  03:02+1503:03+181m--1-230.059110mNRKunda, Uttar Pradesh
9GRMRGarhi Manikpur  03:15+1703:16+181m--1-218.348113mNRGarhi Manikpur, Uttar Pradesh
10PQNPariawan Kalakankar Road  03:25+1803:26+231m--1-211.157115mNRPwn Klaknder Rd, Uttar Pradesh
11ARKAArkha  03:35+2303:36+231m--1-202.517115mNRLucknow Allahabad Rd, Uttar Pradesh
12UCRUnchahar JunctionX  03:44+2103:45+231m--1-200.261116mNRUnchahar, Uttar Pradesh
13RCPRamachandrapur  03:56-03:57-1m--1-189.045114mNRLucknow Allahabad Rd, Uttar Pradesh
14LMNLachhmanpur  04:05+2304:06+241m--1-183.068119mNRUnchahar, Uttar Pradesh
15DYPDaryapur Junction  04:19+2404:20+291m--1-168.324115mNRNational Highway 24B, Uttar Pradesh
16RBLRae Bareli Junction (4)  04:35+2404:40+285m--1-162.442116mNRRaebareli, Uttar Pradesh
17GANGGangaGanj (2)  04:51+2904:52+331m--1-154.770118mNRBachhrawan, Uttar Pradesh
18HCPHarchandpur (3)  04:58+4004:59+411m--1-147.647118mNRRae Bareli, Uttar Pradesh
19KVGKundanganj (2)  05:07+4205:08+431m--1-141.352119mNRHarchandpur, Uttar Pradesh
20BCNBachhrawan (2)X  05:19+4305:20+461m--1-131.714124mNRLucknow, Uttar Pradesh
21SAGRShrirajnagar (1)X  05:44+2905:45+331m11-126.019122mNRMohanlalGanj, Uttar Pradesh
22NHNNigohan (1)X  06:04+2206:05+331m11-120.118120mNRLucknow, Uttar Pradesh
23KKAHKankaha (1)  06:28+2206:29+281m11-113.137125mNRBachhrawan, Uttar Pradesh
24MLJMohanlalGanj (1)  06:42+2606:43+301m11-105.130124mNRMohanlalganj, Uttar Pradesh
25UTRUtraitia Junction (2)  07:00+2607:01+301m--1-96.717124mNRLucknow, Uttar Pradesh
26LKOLucknow Charbagh (9)X  07:45+1208:20+735m51-84.525123mNR226004, Uttar Pradesh
27AMGAlamnagar (3)X  08:37+3208:38+371m--1-77.550126mNRLucknow, Uttar Pradesh
28KKJKakori (3)X  08:47+4208:48+441m--1-69.958129mNRSH 25, Uttar Pradesh
29MLDMalihabad  08:58+4408:59+471m--1-60.343130mNRMalihabad, Uttar Pradesh
30DILDilawarnagarX  09:07+4709:08+481m--1-54.651133mNRSH 25, Uttar Pradesh
31RBDRahimabadX  09:17+4709:18+591m--1-47.060132mNRSH 25, Uttar Pradesh
32SANSandila (3)X  09:29+5009:30+521m--1-36.053132mNRSandila, Uttar Pradesh
33UTAUmar TaliO  09:36+1:0009:37+1:011m--1-30.743135mNRHardoi, Uttar Pradesh
34DLQDalelnagar  09:46+5909:47+1:071m--1-24.386136mNRSH 25, Uttar Pradesh
35BLMBalamu Junction (4)X  09:53+1:0209:58+1:035m--1-15.740139mNRBalamau, Uttar Pradesh
36BGHBaghauli  10:11+1:0710:12+1:081m--1-6.946141mNRsharda nehar, Uttar Pradesh
37MST»Masit»X  10:21+1:0710:22+1:151m--10.050141mNRSH 25, Uttar Pradesh
38KARKarnaX  10:31+1:1410:32+1:231m--17.554143mNRHardoi, Uttar Pradesh
39HRIHardoi (5)X  10:43+2410:44+251m--117.439146mNRHardoi, Uttar Pradesh
40KUFKaurhaX  10:57+1:2310:58+1:231m--125.853148mNRSH 25, Uttar Pradesh
41BEGBehtagokul  11:08+1:2811:09+1:291m--134.648152mNRBehtagokul, Uttar Pradesh
42TDPTodarpur  11:17+1:3011:18+1:311m--141.126147mNRSH 25, Uttar Pradesh
43SHRMSharma  11:24-11:25-1m--143.651150mNRSH 25, Uttar Pradesh
44AJIAnjhi Shahabad  11:32+1:1711:33+1:201m--149.647148mNRAnjhi Shahabad, Uttar Pradesh
45AIGAlgawan  11:41+1:3211:42+1:331m--155.857152mNRAlgawan, Uttar Pradesh
46KHKahiliyaX  11:51+1:3211:52+1:351m--164.412152mNRSH 25, Uttar Pradesh
47ROZARoza Junction (4)X  12:36+5512:37+1:101m--172.942156mNRShahjahanpur, Uttar Pradesh
48SXKShahjahanpur CourtX  12:45-12:46-1m--178.67160mNRShahjahanpur, Uttar Pradesh
49SPNShahjahanpur Junction (3)X  12:55+1913:00+185m--179.556156mNRShahjahanpur, Uttar Pradesh
50BTRABanthra  13:09+1:2213:10+1:361m--187.948154mNRNH 24, Uttar Pradesh
51BHDHBahadurpur HaltX  13:17-13:18-1m--193.535154mNRNH 24, Uttar Pradesh
52TLHTilhar  13:25+1:0513:26+1:061m--197.758163mNRTilhar, Uttar Pradesh
53MKMiranpur Katra  13:36+1:3613:37+1:361m--1107.448162mNRShahjahanpur, Uttar Pradesh
54BLPUBilpur  13:46+1:3613:47+1:391m--1114.647161mNRFatehganj, Uttar Pradesh
55TSATisuaX  13:56+1:3913:57+1:401m--1121.651165mNRNational Highway 24, Uttar Pradesh
56PMRPitambarpur  14:07+1:2314:08+1:331m--1130.257171mNRPitambarpur, Uttar Pradesh
57RYSRasuriya  14:18+1:5014:19+1:521m--1139.644174mNRNH 24, Uttar Pradesh
58CHTIChanehti Junction  14:28+1:3014:29+1:371m--1146.36168mNRBareilly, Uttar Pradesh
59BE•Bareilly Junction (4)•  15:10+36-31150.0-174mNRBareilly, Uttar Pradesh
Scroll to Top
Scroll to Bottom